createdAt,value
2023-05-12T00:00:34.549Z,101643.56
2023-05-12T00:03:07.261Z,101629.13
2023-05-12T00:05:36.773Z,101639.38
2023-05-12T00:08:06.513Z,101635.78
2023-05-12T00:10:36.867Z,101625.47
2023-05-12T00:13:08.514Z,101640.16
2023-05-12T00:15:38.456Z,101637.63
2023-05-12T00:18:09.366Z,101635.97
2023-05-12T00:20:39.459Z,101528.06
2023-05-12T00:23:08.756Z,101633.31
2023-05-12T00:25:40.540Z,101627.56
2023-05-12T00:28:09.842Z,101627.06
2023-05-12T00:30:39.037Z,101624.22
2023-05-12T00:33:09.199Z,101628.38
2023-05-12T00:35:40.903Z,101616.44
2023-05-12T00:38:10.723Z,101624.91
2023-05-12T00:40:39.835Z,101631.13
2023-05-12T00:43:09.976Z,101633.06
2023-05-12T00:45:40.086Z,101630.47
2023-05-12T00:48:11.368Z,101629.91
2023-05-12T00:50:42.999Z,101627.06
2023-05-12T00:53:12.421Z,101623.44
2023-05-12T00:55:43.827Z,101619.16
2023-05-12T00:58:12.691Z,101626.22
2023-05-12T01:00:41.813Z,101621.41
2023-05-12T01:03:12.341Z,101615.91
2023-05-12T01:05:48.727Z,101620.69
2023-05-12T01:08:18.389Z,101620.84
2023-05-12T01:10:48.309Z,101612.03
2023-05-12T01:13:19.814Z,101618.38
2023-05-12T01:15:51.498Z,101611.19
2023-05-12T01:18:24.442Z,101596.06
2023-05-12T01:20:56.497Z,101598.66
2023-05-12T01:23:33.283Z,101603.56
2023-05-12T01:26:07.855Z,101590.38
2023-05-12T01:28:38.960Z,101607.84
2023-05-12T01:31:11.191Z,101611.75
2023-05-12T01:33:40.961Z,101610.91
2023-05-12T01:36:10.880Z,101612.03
2023-05-12T01:38:41.985Z,101607.19
2023-05-12T01:41:12.187Z,101601.13
2023-05-12T01:43:46.958Z,101601.28
2023-05-12T01:46:19.831Z,101613.25
2023-05-12T01:48:49.811Z,101607.84
2023-05-12T01:51:19.557Z,101610.41
2023-05-12T01:53:50.852Z,101608.50
2023-05-12T01:56:21.920Z,101603.59
2023-05-12T01:58:52.018Z,101603.97
2023-05-12T02:01:20.921Z,101584.19
2023-05-12T02:03:52.937Z,101597.97
2023-05-12T02:06:24.844Z,101596.06
2023-05-12T02:08:53.918Z,101593.47
2023-05-12T02:11:25.198Z,101597.97
2023-05-12T02:13:53.979Z,101595.47
2023-05-12T02:16:22.843Z,101600.56
2023-05-12T02:18:51.885Z,101600.66
2023-05-12T02:21:21.763Z,101593.63
2023-05-12T02:23:53.803Z,101590.25
2023-05-12T02:26:25.939Z,101594.00
2023-05-12T02:28:55.838Z,101566.91
2023-05-12T02:31:24.859Z,101584.50
2023-05-12T02:33:53.827Z,101586.25
2023-05-12T02:36:22.856Z,101440.16
2023-05-12T02:38:52.756Z,101587.22
2023-05-12T02:41:26.812Z,101580.25
2023-05-12T02:43:55.796Z,101574.00
2023-05-12T02:46:24.882Z,101582.81
2023-05-12T02:48:53.812Z,101579.69
2023-05-12T02:51:23.533Z,101435.28
2023-05-12T02:53:53.334Z,101583.03
2023-05-12T02:56:23.561Z,101573.47
2023-05-12T02:58:54.536Z,101573.47
2023-05-12T03:01:23.417Z,101562.28
2023-05-12T03:03:52.261Z,101529.25
2023-05-12T03:06:21.169Z,101566.34
2023-05-12T03:08:54.526Z,101562.72
2023-05-12T03:11:24.012Z,101571.06
2023-05-12T03:13:54.195Z,101562.03
2023-05-12T03:16:23.824Z,101567.94
2023-05-12T03:18:52.866Z,101570.25
2023-05-12T03:21:22.266Z,101563.09
2023-05-12T03:23:50.999Z,101596.31
2023-05-12T03:26:19.825Z,101568.53
2023-05-12T03:28:48.797Z,101560.78
2023-05-12T03:31:22.686Z,101542.28
2023-05-12T03:33:51.804Z,101551.22
2023-05-12T03:36:20.844Z,101551.44
2023-05-12T03:38:49.818Z,101549.94
2023-05-12T03:41:18.958Z,101547.81
2023-05-12T03:43:47.717Z,101549.03
2023-05-12T03:46:16.658Z,101549.50
2023-05-12T03:48:46.966Z,101542.13
2023-05-12T03:51:15.894Z,101536.44
2023-05-12T03:53:47.726Z,101506.94
2023-05-12T03:56:17.250Z,101535.91
2023-05-12T03:58:47.382Z,101537.63
2023-05-12T04:01:18.935Z,101548.91
2023-05-12T04:03:49.422Z,101547.81
2023-05-12T04:06:51.004Z,101544.84
2023-05-12T04:09:21.440Z,101548.53
2023-05-12T04:11:51.404Z,101540.66
2023-05-12T04:14:26.507Z,101515.06
2023-05-12T04:17:03.881Z,101544.28
2023-05-12T04:19:34.243Z,101550.13
2023-05-12T04:22:02.989Z,101543.56
2023-05-12T04:24:32.356Z,101523.59
2023-05-12T04:27:01.383Z,101543.44
2023-05-12T04:29:30.386Z,101540.28
2023-05-12T04:32:00.137Z,101537.84
2023-05-12T04:34:31.195Z,101537.97
2023-05-12T04:37:01.490Z,101548.66
2023-05-12T04:39:30.168Z,101534.22
2023-05-12T04:42:01.390Z,101543.00
2023-05-12T04:44:33.010Z,101547.84
2023-05-12T04:47:02.182Z,101546.59
2023-05-12T04:49:33.550Z,101565.75
2023-05-12T04:52:05.010Z,101543.31
2023-05-12T04:54:36.390Z,101544.22
2023-05-12T04:57:05.605Z,101556.16
2023-05-12T04:59:37.643Z,101553.47
2023-05-12T05:02:07.133Z,101560.66
2023-05-12T05:04:35.882Z,101548.66
2023-05-12T05:07:06.818Z,101565.34
2023-05-12T05:09:36.743Z,101572.91
2023-05-12T05:12:06.953Z,101573.19
2023-05-12T05:14:35.917Z,101579.56
2023-05-12T05:17:07.033Z,101583.94
2023-05-12T05:19:49.283Z,101573.31
2023-05-12T05:22:25.291Z,101585.38
2023-05-12T05:24:54.171Z,101600.31
2023-05-12T05:27:22.897Z,101601.72
2023-05-12T05:29:52.508Z,101628.56
2023-05-12T05:32:23.432Z,101604.75
2023-05-12T05:34:52.130Z,101598.47
2023-05-12T05:37:21.066Z,101603.94
2023-05-12T05:39:51.175Z,101602.72
2023-05-12T05:42:20.041Z,101603.31
2023-05-12T05:44:48.956Z,101608.53
2023-05-12T05:47:19.166Z,101607.69
2023-05-12T05:49:47.997Z,101615.25
2023-05-12T05:52:17.356Z,101611.16
2023-05-12T05:54:46.134Z,101616.78
2023-05-12T05:57:18.376Z,101621.59
2023-05-12T05:59:47.675Z,101625.59
2023-05-12T06:02:17.423Z,101615.91
2023-05-12T06:04:46.416Z,101623.16
2023-05-12T06:07:15.063Z,101627.66
2023-05-12T06:09:46.495Z,101625.19
2023-05-12T06:12:15.345Z,101628.34
2023-05-12T06:14:45.608Z,101623.34
2023-05-12T06:17:14.322Z,101624.63
2023-05-12T06:19:44.151Z,101600.88
2023-05-12T06:22:12.926Z,101622.97
2023-05-12T06:24:41.782Z,101625.34
2023-05-12T06:27:11.813Z,101617.78
2023-05-12T06:29:40.601Z,101623.91
2023-05-12T06:32:10.959Z,101630.75
2023-05-12T06:34:39.754Z,101628.84
2023-05-12T06:37:08.411Z,101617.78
2023-05-12T06:39:37.211Z,101632.31
2023-05-12T06:42:08.525Z,101626.53
2023-05-12T06:44:45.695Z,101630.56
2023-05-12T06:47:18.475Z,101625.53
2023-05-12T06:49:47.135Z,101632.72
2023-05-12T06:52:20.577Z,101643.28
2023-05-12T06:54:49.320Z,101644.22
2023-05-12T06:57:17.975Z,101641.59
2023-05-12T06:59:46.679Z,101642.38
2023-05-12T07:02:15.390Z,101645.34
2023-05-12T07:04:45.480Z,101649.19
2023-05-12T07:07:14.213Z,101650.19
2023-05-12T07:09:43.163Z,101649.63
2023-05-12T07:12:14.012Z,101644.72
2023-05-12T07:14:42.834Z,101643.56
2023-05-12T07:17:13.577Z,101653.81
2023-05-12T07:19:43.610Z,101655.00
2023-05-12T07:22:13.722Z,101659.84
2023-05-12T07:24:43.006Z,101669.59
2023-05-12T07:27:14.067Z,101659.41
2023-05-12T07:29:42.834Z,101658.34
2023-05-12T07:32:11.747Z,101650.50
2023-05-12T07:34:45.138Z,101670.09
2023-05-12T07:37:15.305Z,101653.69
2023-05-12T07:39:44.026Z,101660.00
2023-05-12T07:42:15.060Z,101664.97
2023-05-12T07:44:44.009Z,101670.66
2023-05-12T07:47:13.213Z,101638.63
2023-05-12T07:49:42.164Z,101679.72
2023-05-12T07:52:10.846Z,101673.25
2023-05-12T07:54:41.175Z,101671.53
2023-05-12T07:57:09.873Z,101671.72
2023-05-12T07:59:38.528Z,101675.75
2023-05-12T08:02:08.082Z,101672.34
2023-05-12T08:04:37.146Z,101675.81
2023-05-12T08:07:06.059Z,101674.72
2023-05-12T08:09:34.759Z,101682.22
2023-05-12T08:12:05.333Z,101679.53
2023-05-12T08:14:34.127Z,101687.84
2023-05-12T08:17:02.973Z,101678.75
2023-05-12T08:19:31.667Z,101677.28
2023-05-12T08:22:02.961Z,101674.50
2023-05-12T08:24:31.897Z,101560.03
2023-05-12T08:27:00.644Z,101687.84
2023-05-12T08:29:30.833Z,101688.97
2023-05-12T08:31:59.783Z,101695.94
2023-05-12T08:34:28.507Z,101691.50
2023-05-12T08:36:57.237Z,101685.50
2023-05-12T08:39:26.002Z,101695.16
2023-05-12T08:42:04.917Z,101688.91
2023-05-12T08:44:35.260Z,101682.72
2023-05-12T08:47:06.791Z,101689.66
2023-05-12T08:49:39.804Z,101687.50
2023-05-12T08:52:09.637Z,101589.97
2023-05-12T08:54:52.299Z,101696.97
2023-05-12T08:57:26.505Z,101683.97
2023-05-12T09:00:00.228Z,101699.69
2023-05-12T09:02:44.655Z,101682.44
2023-05-12T09:05:17.623Z,101707.19
2023-05-12T09:07:48.035Z,101704.00
2023-05-12T09:10:33.755Z,101698.97
2023-05-12T09:13:10.044Z,101704.91
2023-05-12T09:15:44.088Z,101710.84
2023-05-12T09:18:12.864Z,101703.41
2023-05-12T09:20:41.704Z,101703.28
2023-05-12T09:23:18.205Z,101496.38
2023-05-12T09:26:01.184Z,101709.00
2023-05-12T09:28:37.212Z,101697.50
2023-05-12T09:31:18.007Z,101696.59
2023-05-12T09:33:46.856Z,101709.59
2023-05-12T09:36:19.291Z,101706.97
2023-05-12T09:38:48.523Z,101704.16
2023-05-12T09:41:24.004Z,101695.94
2023-05-12T09:43:54.367Z,101687.53
2023-05-12T09:46:25.910Z,101698.81
2023-05-12T09:48:57.327Z,101706.00
2023-05-12T09:51:27.113Z,101707.97
2023-05-12T09:53:55.948Z,101709.84
2023-05-12T09:56:28.991Z,101718.66
2023-05-12T09:58:58.351Z,101719.91
2023-05-12T10:01:28.682Z,101712.91
2023-05-12T10:03:59.378Z,101718.69
2023-05-12T10:06:35.184Z,101713.16
2023-05-12T10:09:15.823Z,101715.66
2023-05-12T10:11:45.842Z,101715.72
2023-05-12T10:14:15.057Z,101682.91
2023-05-12T10:16:47.219Z,101715.38
2023-05-12T10:19:17.116Z,101706.91
2023-05-12T10:21:47.118Z,101715.16
2023-05-12T10:24:16.962Z,101716.19
2023-05-12T10:26:46.033Z,101723.94
2023-05-12T10:29:16.545Z,101718.28
2023-05-12T10:31:48.046Z,101721.84
2023-05-12T10:34:19.136Z,101717.88
2023-05-12T10:36:49.321Z,101729.00
2023-05-12T10:39:18.408Z,101703.09
2023-05-12T10:41:47.075Z,101717.34
2023-05-12T10:44:15.857Z,101722.00
2023-05-12T10:46:45.956Z,101715.81
2023-05-12T10:49:18.074Z,101717.25
2023-05-12T10:51:50.713Z,101597.28
2023-05-12T10:54:26.796Z,101708.56
2023-05-12T10:57:02.195Z,101708.59
2023-05-12T10:59:32.176Z,101725.94
2023-05-12T11:02:05.908Z,101708.59
2023-05-12T11:04:41.893Z,101714.91
2023-05-12T11:07:13.920Z,101715.00
2023-05-12T11:09:56.818Z,101688.63
2023-05-12T11:12:32.713Z,101699.22
2023-05-12T11:15:06.370Z,101713.19
2023-05-12T11:17:41.553Z,101713.06
2023-05-12T11:20:23.534Z,101715.81
2023-05-12T11:22:55.372Z,101709.69
2023-05-12T11:25:24.427Z,101718.59
2023-05-12T11:27:53.179Z,101722.56
2023-05-12T11:30:22.548Z,101721.59
2023-05-12T11:33:03.371Z,101714.47
2023-05-12T11:35:33.184Z,101718.00
2023-05-12T11:38:03.021Z,101709.09
2023-05-12T11:40:34.073Z,101715.69
2023-05-12T11:43:10.994Z,101715.06
2023-05-12T11:45:39.869Z,101716.03
2023-05-12T11:48:14.979Z,101727.56
2023-05-12T11:50:47.862Z,101699.91
2023-05-12T11:53:20.007Z,101736.69
2023-05-12T11:55:50.391Z,101724.59
2023-05-12T11:58:24.498Z,101728.78
2023-05-12T12:00:53.777Z,101566.81
2023-05-12T12:03:24.485Z,101728.75
2023-05-12T12:06:03.634Z,101729.84
2023-05-12T12:08:38.826Z,101712.06
2023-05-12T12:11:07.998Z,101732.19
2023-05-12T12:13:36.676Z,101734.16
2023-05-12T12:16:06.005Z,101734.69
2023-05-12T12:18:36.225Z,101739.75
2023-05-12T12:21:07.380Z,101741.94
2023-05-12T12:23:50.031Z,101745.19
2023-05-12T12:26:21.685Z,101706.66
2023-05-12T12:28:50.577Z,101738.03
2023-05-12T12:31:19.267Z,101741.59
2023-05-12T12:33:52.016Z,101748.81
2023-05-12T12:36:20.755Z,101746.88
2023-05-12T12:38:49.491Z,101749.06
2023-05-12T12:41:18.217Z,101759.81
2023-05-12T12:43:49.166Z,101762.63
2023-05-12T12:46:20.434Z,101755.78
2023-05-12T12:48:49.192Z,101762.09
2023-05-12T12:51:19.345Z,101755.28
2023-05-12T12:53:48.119Z,101757.78
2023-05-12T12:56:16.802Z,101758.13
2023-05-12T12:58:45.561Z,101758.00
2023-05-12T13:01:16.577Z,101747.91
2023-05-12T13:03:45.476Z,101760.28
2023-05-12T13:06:14.146Z,101760.16
2023-05-12T13:08:44.288Z,101757.84
2023-05-12T13:11:13.005Z,101766.66
2023-05-12T13:13:41.686Z,101764.50
2023-05-12T13:16:10.443Z,101769.22
2023-05-12T13:18:39.535Z,101769.28
2023-05-12T13:21:08.354Z,101760.19
2023-05-12T13:23:37.183Z,101769.22
2023-05-12T13:26:07.339Z,101762.13
2023-05-12T13:28:36.180Z,101764.06
2023-05-12T13:31:07.486Z,101764.34
2023-05-12T13:33:36.370Z,101767.38
2023-05-12T13:36:05.357Z,101746.31
2023-05-12T13:38:34.696Z,101760.44
2023-05-12T13:41:07.108Z,101758.13
2023-05-12T13:43:36.007Z,101759.66
2023-05-12T13:46:04.737Z,101761.59
2023-05-12T13:48:33.590Z,101765.00
2023-05-12T13:51:02.362Z,101714.53
2023-05-12T13:53:32.203Z,101765.53
2023-05-12T13:56:17.548Z,101760.88
2023-05-12T13:58:46.286Z,101776.31
2023-05-12T14:01:15.037Z,101768.94
2023-05-12T14:03:43.968Z,101761.53
2023-05-12T14:06:15.854Z,101749.16
2023-05-12T14:08:44.794Z,101762.34
2023-05-12T14:11:13.492Z,101764.56
2023-05-12T14:13:43.888Z,101757.75
2023-05-12T14:16:14.148Z,101756.34
2023-05-12T14:18:43.809Z,101763.88
2023-05-12T14:21:12.860Z,101602.16
2023-05-12T14:23:44.078Z,101764.47
2023-05-12T14:26:12.856Z,101760.81
2023-05-12T14:28:47.945Z,101765.63
2023-05-12T14:31:17.396Z,101766.88
2023-05-12T14:33:48.534Z,101766.72
2023-05-12T14:36:17.260Z,101766.50
2023-05-12T14:38:46.102Z,101766.38
2023-05-12T14:41:15.016Z,101775.75
2023-05-12T14:43:45.144Z,101772.38
2023-05-12T14:46:14.486Z,101738.28
2023-05-12T14:48:43.378Z,101733.78
2023-05-12T14:51:12.081Z,101773.00
2023-05-12T14:53:40.773Z,101782.66
2023-05-12T14:56:09.561Z,101761.81
2023-05-12T14:58:38.302Z,101783.75
2023-05-12T15:01:09.498Z,101782.19
2023-05-12T15:03:41.014Z,101779.88
2023-05-12T15:06:09.758Z,101785.50
2023-05-12T15:08:38.436Z,101757.41
2023-05-12T15:11:07.271Z,101789.09
2023-05-12T15:13:35.988Z,101781.91
2023-05-12T15:16:04.989Z,101789.41
2023-05-12T15:18:35.132Z,101789.19
2023-05-12T15:21:06.986Z,101780.13
2023-05-12T15:23:35.769Z,101710.88
2023-05-12T15:26:27.130Z,101727.56
2023-05-12T15:28:56.588Z,101800.41
2023-05-12T15:31:30.382Z,101798.94
2023-05-12T15:34:03.139Z,101793.31
2023-05-12T15:36:34.108Z,101797.03
2023-05-12T15:39:03.785Z,101793.56
2023-05-12T15:41:32.850Z,101791.44
2023-05-12T15:44:01.559Z,101793.56
2023-05-12T15:46:31.059Z,101788.25
2023-05-12T15:48:59.822Z,101796.94
2023-05-12T15:51:29.947Z,101776.53
2023-05-12T15:53:58.844Z,101794.09
2023-05-12T15:56:27.628Z,101778.84
2023-05-12T15:58:57.320Z,101777.25
2023-05-12T16:01:26.342Z,101769.88
2023-05-12T16:03:56.166Z,101775.03
2023-05-12T16:06:25.062Z,101769.88
2023-05-12T16:08:55.360Z,101660.59
2023-05-12T16:11:24.092Z,101779.06
2023-05-12T16:13:53.253Z,101774.38
2023-05-12T16:16:22.830Z,101776.31
2023-05-12T16:18:53.950Z,101775.16
2023-05-12T16:21:22.726Z,101765.75
2023-05-12T16:23:51.454Z,101771.13
2023-05-12T16:26:21.586Z,101768.28
2023-05-12T16:28:50.316Z,101774.06
2023-05-12T16:31:21.785Z,101771.25
2023-05-12T16:33:50.550Z,101751.41
2023-05-12T16:36:19.881Z,101786.34
2023-05-12T16:38:48.630Z,101812.09
2023-05-12T16:41:17.593Z,101729.84
2023-05-12T16:43:47.922Z,101820.97
2023-05-12T16:46:16.708Z,101837.38
2023-05-12T16:48:45.469Z,101846.25
2023-05-12T16:51:15.517Z,101848.03
2023-05-12T16:53:44.347Z,101864.72
2023-05-12T16:56:13.212Z,101867.00
2023-05-12T16:58:44.421Z,101890.00
2023-05-12T17:01:17.065Z,101880.25
2023-05-12T17:03:45.958Z,101790.53
2023-05-12T17:06:14.775Z,101855.19
2023-05-12T17:08:43.536Z,101855.47
2023-05-12T17:11:12.283Z,101781.34
2023-05-12T17:13:40.943Z,101852.34
2023-05-12T17:16:09.658Z,101753.41
2023-05-12T17:21:13.975Z,101834.47
2023-05-12T17:23:42.832Z,101830.63
2023-05-12T17:26:11.642Z,101822.25
2023-05-12T17:28:40.476Z,101829.22
2023-05-12T17:31:09.421Z,101827.16
2023-05-12T17:33:39.614Z,101827.63
2023-05-12T17:36:12.747Z,101832.63
2023-05-12T17:38:43.556Z,101833.16
2023-05-12T17:41:16.228Z,101833.06
2023-05-12T17:43:45.061Z,101832.75
2023-05-12T17:46:16.148Z,101831.75
2023-05-12T17:48:46.382Z,101841.25
2023-05-12T17:51:15.064Z,101844.59
2023-05-12T17:53:43.849Z,101837.56
2023-05-12T17:56:12.639Z,101841.63
2023-05-12T17:58:41.647Z,101849.53
2023-05-12T18:01:10.457Z,101844.28
2023-05-12T18:03:39.227Z,101849.63
2023-05-12T18:06:12.779Z,101850.00
2023-05-12T18:08:41.524Z,101863.47
2023-05-12T18:11:10.344Z,101865.16
2023-05-12T18:13:38.993Z,101847.59
2023-05-12T18:16:12.861Z,101859.63
2023-05-12T18:18:50.198Z,101863.28
2023-05-12T18:21:20.451Z,101860.50
2023-05-12T18:23:52.362Z,101879.47
2023-05-12T18:26:21.330Z,101866.75
2023-05-12T18:28:52.516Z,101867.16
2023-05-12T18:36:14.157Z,101869.78
2023-05-12T18:38:44.746Z,101866.41
2023-05-12T18:41:13.840Z,101829.78
2023-05-12T18:43:45.209Z,101868.19
2023-05-12T18:46:14.382Z,101866.84
2023-05-12T18:48:43.472Z,101875.50
2023-05-12T18:51:12.666Z,101871.94
2023-05-12T18:53:41.629Z,101878.91
2023-05-12T18:56:11.842Z,101883.69
2023-05-12T18:58:40.832Z,101883.78
2023-05-12T19:01:10.072Z,101892.25
2023-05-12T19:03:41.556Z,101890.63
2023-05-12T19:06:10.695Z,101891.69
2023-05-12T19:08:39.591Z,101901.28
2023-05-12T19:11:08.727Z,101901.56
2023-05-12T19:13:43.086Z,101909.53
2023-05-12T19:16:12.738Z,101901.25
2023-05-12T19:18:41.487Z,101923.84
2023-05-12T19:21:10.649Z,101918.25
2023-05-12T19:23:39.455Z,101924.38
2023-05-12T19:26:11.294Z,101926.44
2023-05-12T19:28:43.934Z,101917.28
2023-05-12T19:31:12.766Z,101928.44
2023-05-12T19:33:41.670Z,101934.16
2023-05-12T19:36:11.987Z,101932.91
2023-05-12T19:38:43.677Z,101930.47
2023-05-12T19:41:14.804Z,101930.41
2023-05-12T19:43:44.909Z,101932.19
2023-05-12T19:46:15.109Z,101935.97
2023-05-12T19:48:43.962Z,101941.78
2023-05-12T19:51:12.777Z,101948.09
2023-05-12T19:53:43.116Z,101949.81
2023-05-12T19:56:15.084Z,101945.91
2023-05-12T19:58:45.203Z,101957.47
2023-05-12T20:01:14.076Z,101953.22
2023-05-12T20:03:43.100Z,101966.31
2023-05-12T20:06:14.208Z,101957.53
2023-05-12T20:08:43.013Z,101965.78
2023-05-12T20:11:11.806Z,101970.34
2023-05-12T20:13:40.565Z,101980.28
2023-05-12T20:16:10.716Z,101972.72
2023-05-12T20:18:44.214Z,101986.97
2023-05-12T20:21:12.996Z,101983.56
2023-05-12T20:23:42.204Z,101983.72
2023-05-12T20:26:11.113Z,101974.66
2023-05-12T20:28:39.893Z,101982.38
2023-05-12T20:31:14.794Z,101987.63
2023-05-12T20:33:43.810Z,101990.66
2023-05-12T20:36:12.492Z,101992.38
2023-05-12T20:38:41.445Z,101996.09
2023-05-12T20:41:13.723Z,101992.38
2023-05-12T20:43:42.547Z,102005.25
2023-05-12T20:46:11.830Z,102004.25
2023-05-12T20:53:36.623Z,102008.13
2023-05-12T20:56:08.816Z,102003.34
2023-05-12T20:58:37.996Z,101965.56
2023-05-12T21:01:06.911Z,101885.81
2023-05-12T21:03:38.694Z,102004.75
2023-05-12T21:06:07.968Z,102014.34
2023-05-12T21:08:38.788Z,101985.56
2023-05-12T21:11:15.768Z,101969.25
2023-05-12T21:13:48.377Z,102011.53
2023-05-12T21:16:20.119Z,102022.81
2023-05-12T21:18:49.550Z,102016.97
2023-05-12T21:21:18.732Z,102022.81
2023-05-12T21:23:49.302Z,102018.38
2023-05-12T21:26:18.132Z,102006.34
2023-05-12T21:28:47.266Z,102027.25
2023-05-12T21:31:18.512Z,102030.81
2023-05-12T21:33:48.155Z,102031.66
2023-05-12T21:36:17.165Z,102027.50
2023-05-12T21:38:46.484Z,102030.97
2023-05-12T21:41:18.895Z,102029.94
2023-05-12T21:43:48.261Z,102027.66
2023-05-12T21:46:17.586Z,102017.53
2023-05-12T21:48:46.572Z,102040.69
2023-05-12T21:51:16.057Z,102036.78
2023-05-12T21:53:45.283Z,102035.69
2023-05-12T21:56:14.893Z,101897.41
2023-05-12T21:58:45.206Z,102040.94
2023-05-12T22:01:14.318Z,102041.81
2023-05-12T22:03:43.318Z,102033.09
2023-05-12T22:06:13.028Z,102037.41
2023-05-12T22:08:42.327Z,102036.47
2023-05-12T22:11:11.980Z,102048.38
2023-05-12T22:13:44.912Z,102044.66
2023-05-12T22:16:13.934Z,101934.38
2023-05-12T22:18:44.101Z,102053.25
2023-05-12T22:21:15.643Z,102052.88
2023-05-12T22:23:44.584Z,102083.69
2023-05-12T22:26:13.409Z,102041.25
2023-05-12T22:28:42.628Z,102051.53
2023-05-12T22:31:13.086Z,102045.75
2023-05-12T22:33:42.384Z,101923.25
2023-05-12T22:36:11.486Z,102018.22
2023-05-12T22:38:40.898Z,102058.41
2023-05-12T22:41:12.527Z,102069.06
2023-05-12T22:43:41.356Z,102041.22
2023-05-12T22:46:10.433Z,102069.13
2023-05-12T22:48:40.735Z,102065.91
2023-05-12T22:51:10.039Z,102067.56
2023-05-12T22:53:41.567Z,102066.78
2023-05-12T22:56:10.722Z,102036.06
2023-05-12T22:58:39.699Z,102065.09
2023-05-12T23:01:09.048Z,102069.50
2023-05-12T23:03:41.755Z,102069.19
2023-05-12T23:06:11.131Z,102010.38
2023-05-12T23:08:40.149Z,102063.47
2023-05-12T23:11:09.860Z,102066.16
2023-05-12T23:13:38.931Z,102074.19
2023-05-12T23:16:10.324Z,102073.50
2023-05-12T23:18:39.523Z,102069.09
2023-05-12T23:21:09.909Z,102067.94
2023-05-12T23:23:39.013Z,102068.31
2023-05-12T23:26:10.934Z,102060.75
2023-05-12T23:28:45.144Z,102068.47
2023-05-12T23:31:14.094Z,102065.63
2023-05-12T23:33:43.123Z,102067.75
2023-05-12T23:36:14.608Z,102069.75
2023-05-12T23:38:44.075Z,102054.69
2023-05-12T23:41:13.381Z,102066.41
2023-05-12T23:43:42.332Z,102061.81
2023-05-12T23:46:11.729Z,102007.34
2023-05-12T23:48:41.225Z,102064.50
2023-05-12T23:51:13.962Z,102067.91
2023-05-12T23:53:42.891Z,102040.03
2023-05-12T23:56:14.908Z,102067.81
2023-05-12T23:58:49.303Z,102065.09
